Time;durP1;ratioP1;P1;durP2;ratioP2;P2;SDS_P1;SDS_P2;PMS_P1;PMS_P2;Temp;Humidity;BMP_temperature;BMP_pressure;BME280_temperature;BME280_humidity;BME280_pressure;Samples;Min_cycle;Max_cycle;Signal;HPM_P1;HPM_P2
2022/08/23 00:02:19;;;;;;;6.50;3.40;;;;;;;20.81;47.50;100295.63;10237715;29;20094;-78
2022/08/23 00:07:26;;;;;;;8.10;3.17;;;;;;;20.79;47.46;100295.81;10243248;29;20047;-77
2022/08/23 00:12:32;;;;;;;5.45;3.60;;;;;;;20.75;47.30;100297.22;10237694;29;20047;-77
2022/08/23 00:17:35;;;;;;;6.25;2.97;;;;;;;20.83;47.19;100290.81;10236636;29;20051;-77
2022/08/23 00:22:39;;;;;;;5.15;2.90;;;;;;;20.94;46.67;100291.13;10231952;29;20040;-77
2022/08/23 00:27:44;;;;;;;7.78;3.45;;;;;;;20.78;46.88;100285.94;10226335;29;20449;-77
2022/08/23 00:32:47;;;;;;;7.82;3.42;;;;;;;20.77;47.21;100286.97;10238858;29;20047;-77
2022/08/23 00:37:50;;;;;;;8.05;3.17;;;;;;;20.79;46.83;100283.00;10218856;29;20164;-78
2022/08/23 00:48:39;;;;;;;3.90;2.78;;;;;;;20.92;46.48;100290.47;10225333;29;20526;-77
2022/08/23 00:53:46;;;;;;;4.25;2.70;;;;;;;20.76;46.63;100286.13;10210874;29;20444;-77
2022/08/23 00:58:50;;;;;;;6.80;2.97;;;;;;;20.82;46.52;100286.41;10203293;29;20130;-77
2022/08/23 01:03:57;;;;;;;4.88;2.90;;;;;;;20.69;46.95;100281.66;10211914;29;20054;-78
2022/08/23 01:09:11;;;;;;;6.70;3.33;;;;;;;20.64;47.11;100279.47;10205356;29;20055;-77
2022/08/23 01:14:19;;;;;;;7.38;3.17;;;;;;;20.59;47.44;100278.38;10227526;29;20070;-78
2022/08/23 01:19:27;;;;;;;5.00;2.83;;;;;;;20.61;47.51;100285.31;10234766;29;20051;-77
2022/08/23 01:24:37;;;;;;;5.00;2.90;;;;;;;20.56;47.19;100283.16;10198137;29;20682;-77
2022/08/23 01:30:03;;;;;;;3.95;2.85;;;;;;;20.58;47.61;100293.06;10212037;28;20043;-77
2022/08/23 01:35:08;;;;;;;6.18;3.10;;;;;;;20.66;47.47;100288.31;10209139;29;20126;-78
2022/08/23 01:40:13;;;;;;;8.45;3.30;;;;;;;20.58;47.72;100290.34;10197190;29;20082;-77
2022/08/23 01:45:16;;;;;;;6.45;3.15;;;;;;;20.73;47.50;100285.66;10229610;29;20134;-77
2022/08/23 01:50:20;;;;;;;6.32;3.53;;;;;;;20.70;47.40;100291.50;10227972;29;20103;-77
2022/08/23 01:55:24;;;;;;;5.80;3.05;;;;;;;20.59;47.61;100287.41;10215086;29;20395;-77
2022/08/23 02:00:31;;;;;;;5.30;3.30;;;;;;;20.50;48.11;100299.47;10224416;29;20500;-76
2022/08/23 02:05:36;;;;;;;3.80;2.63;;;;;;;20.57;48.08;100289.50;10212373;29;20098;-77
2022/08/23 02:10:40;;;;;;;5.53;3.00;;;;;;;20.58;48.09;100295.78;10228558;29;20047;-77
2022/08/23 02:15:44;;;;;;;5.28;2.97;;;;;;;20.46;48.46;100293.56;10239127;28;20110;-77
2022/08/23 02:20:49;;;;;;;5.93;3.05;;;;;;;20.40;48.82;100291.56;10227608;29;20048;-78
2022/08/23 02:25:54;;;;;;;3.63;2.95;;;;;;;20.26;49.19;100285.06;10184774;29;20138;-79
2022/08/23 02:30:57;;;;;;;5.03;2.90;;;;;;;20.20;49.24;100283.13;10215190;29;20125;-78
2022/08/23 02:36:01;;;;;;;4.55;3.00;;;;;;;20.16;49.25;100289.13;10233324;28;20043;-78
2022/08/23 02:41:06;;;;;;;5.57;3.10;;;;;;;20.29;48.86;100286.59;10210299;29;20058;-78
2022/08/23 02:46:09;;;;;;;3.90;2.70;;;;;;;20.39;48.94;100295.34;10215484;29;20070;-78
2022/08/23 02:51:13;;;;;;;7.60;3.10;;;;;;;20.25;49.16;100293.47;10209504;29;20515;-78
2022/08/23 02:56:17;;;;;;;3.72;2.95;;;;;;;20.25;49.17;100290.75;10202103;29;20074;-78
2022/08/23 03:01:27;;;;;;;4.20;2.78;;;;;;;20.22;49.49;100293.84;10205040;29;20051;-78
2022/08/23 03:06:34;;;;;;;4.40;3.03;;;;;;;20.18;49.64;100303.44;10215296;29;20054;-78
2022/08/23 03:11:44;;;;;;;8.27;2.95;;;;;;;20.19;49.50;100291.50;10227034;29;20054;-78
2022/08/23 03:16:48;;;;;;;3.75;2.50;;;;;;;20.12;49.85;100300.41;10209738;29;20099;-78
2022/08/23 03:21:50;;;;;;;9.85;3.10;;;;;;;20.14;49.61;100292.06;10230461;29;20051;-78
2022/08/23 03:26:57;;;;;;;8.18;3.28;;;;;;;20.16;49.65;100286.41;10214286;29;20070;-79
2022/08/23 03:32:01;;;;;;;4.25;2.83;;;;;;;20.13;49.92;100288.50;10221144;29;20083;-78
2022/08/23 03:37:07;;;;;;;4.90;3.08;;;;;;;20.07;49.77;100285.66;10218500;29;20381;-78
2022/08/23 03:42:12;;;;;;;5.65;3.08;;;;;;;20.20;49.81;100294.03;10224989;29;20047;-79
2022/08/23 03:47:16;;;;;;;4.32;3.55;;;;;;;20.13;49.70;100295.84;10221112;29;20445;-77
2022/08/23 03:52:20;;;;;;;4.75;2.97;;;;;;;20.15;49.55;100295.63;10222052;28;20048;-78
2022/08/23 03:57:25;;;;;;;6.38;3.10;;;;;;;20.18;49.65;100297.97;10209389;29;20081;-78
2022/08/23 04:02:28;;;;;;;4.57;3.22;;;;;;;20.11;49.63;100295.19;10227007;29;20054;-78
2022/08/23 04:07:31;;;;;;;5.65;3.20;;;;;;;20.15;49.44;100301.09;10205923;29;20193;-78
2022/08/23 04:12:35;;;;;;;4.70;2.90;;;;;;;20.10;49.62;100302.50;10182592;29;20051;-78
2022/08/23 04:17:41;;;;;;;4.13;3.13;;;;;;;20.08;49.58;100318.22;10206879;29;20062;-79
2022/08/23 04:22:44;;;;;;;4.63;2.90;;;;;;;20.09;49.62;100310.88;10220595;29;20066;-78
2022/08/23 04:27:51;;;;;;;6.05;3.00;;;;;;;20.03;49.74;100319.81;10216071;29;20142;-78
2022/08/23 04:32:54;;;;;;;7.95;2.78;;;;;;;19.96;50.05;100316.97;10213101;29;20075;-79
2022/08/23 04:37:58;;;;;;;4.53;2.92;;;;;;;19.89;50.02;100329.66;10209033;29;20082;-78
2022/08/23 04:43:03;;;;;;;4.75;2.85;;;;;;;19.79;50.16;100342.72;10224150;29;20055;-78
2022/08/23 04:48:08;;;;;;;5.68;3.08;;;;;;;19.75;50.44;100339.53;10223972;29;20047;-78
2022/08/23 04:53:17;;;;;;;4.18;3.30;;;;;;;19.65;50.74;100339.78;10211622;29;20047;-78
2022/08/23 04:58:37;;;;;;;6.72;3.10;;;;;;;19.58;51.29;100347.00;10244171;29;20122;-79
2022/08/23 05:03:40;;;;;;;4.03;3.08;;;;;;;19.46;51.59;100354.72;10210243;29;20155;-79
2022/08/23 05:08:43;;;;;;;8.50;3.22;;;;;;;19.40;51.64;100355.47;10216298;29;20048;-79
2022/08/23 05:13:48;;;;;;;4.63;3.25;;;;;;;19.48;51.36;100351.84;10224639;29;20509;-78
2022/08/23 05:18:51;;;;;;;7.30;3.25;;;;;;;19.44;51.48;100356.81;10225736;29;20071;-78
2022/08/23 05:23:54;;;;;;;5.95;2.90;;;;;;;19.40;51.65;100362.78;10205500;29;20094;-78
2022/08/23 05:29:01;;;;;;;6.07;4.18;;;;;;;19.34;51.74;100358.94;10220028;29;20153;-78
2022/08/23 05:34:10;;;;;;;7.05;3.92;;;;;;;19.45;51.59;100369.38;10219768;29;20135;-78
2022/08/23 05:39:26;;;;;;;5.93;3.28;;;;;;;19.46;51.69;100373.78;10216225;29;20090;-78
2022/08/23 05:44:44;;;;;;;5.10;3.35;;;;;;;19.51;51.52;100381.44;10204628;29;20072;-78
2022/08/23 05:49:49;;;;;;;5.68;3.15;;;;;;;19.55;51.49;100390.91;10212645;29;20051;-78
2022/08/23 05:54:52;;;;;;;6.30;3.17;;;;;;;19.50;51.52;100382.47;10211993;29;20075;-78
2022/08/23 06:00:19;;;;;;;7.47;3.50;;;;;;;19.69;51.13;100397.47;10221609;29;20056;-80
2022/08/23 06:05:26;;;;;;;7.22;3.35;;;;;;;20.09;50.73;100398.13;10210699;29;20066;-78
2022/08/23 06:10:31;;;;;;;6.32;3.42;;;;;;;20.32;50.32;100392.59;10211883;29;20054;-77
2022/08/23 06:15:45;;;;;;;5.35;3.25;;;;;;;20.36;49.68;100402.13;10214408;29;20158;-77
2022/08/23 06:20:48;;;;;;;6.60;3.10;;;;;;;20.45;49.81;100402.88;10225512;29;20047;-75
2022/08/23 06:26:00;;;;;;;6.97;3.15;;;;;;;20.44;49.57;100404.75;10195058;29;20046;-75
2022/08/23 06:31:10;;;;;;;4.82;2.78;;;;;;;20.52;49.48;100407.38;10216008;29;20149;-74
2022/08/23 06:36:18;;;;;;;5.38;2.58;;;;;;;20.72;48.88;100415.81;10191717;29;20067;-74
2022/08/23 06:41:41;;;;;;;8.88;3.25;;;;;;;20.89;48.92;100416.44;10220142;29;20159;-75
2022/08/23 06:47:04;;;;;;;5.78;2.80;;;;;;;21.43;48.31;100415.19;10223645;29;20103;-75
2022/08/23 06:52:08;;;;;;;7.50;3.05;;;;;;;21.54;47.83;100422.03;10186982;29;20052;-74
2022/08/23 06:57:32;;;;;;;5.10;2.60;;;;;;;21.82;47.36;100422.94;10201272;29;20047;-74
2022/08/23 07:02:54;;;;;;;4.83;2.90;;;;;;;22.07;46.44;100425.25;10212982;29;20055;-74
2022/08/23 07:08:33;;;;;;;4.63;2.83;;;;;;;22.19;46.26;100420.94;10155013;29;20078;-74
2022/08/23 07:13:36;;;;;;;7.10;3.03;;;;;;;22.07;45.58;100419.78;10219947;29;20521;-74
2022/08/23 07:18:41;;;;;;;8.25;2.83;;;;;;;22.21;45.02;100428.91;10213987;29;20429;-74
2022/08/23 07:23:44;;;;;;;6.55;2.40;;;;;;;22.71;44.31;100440.63;10211341;29;20167;-76
2022/08/23 07:28:49;;;;;;;4.65;2.10;;;;;;;23.22;44.13;100434.75;10200929;29;20052;-75
2022/08/23 07:33:55;;;;;;;7.15;2.83;;;;;;;23.13;43.45;100433.25;10207516;29;20047;-75
2022/08/23 07:39:01;;;;;;;12.52;3.42;;;;;;;23.26;43.24;100437.91;10188726;29;20047;-75
2022/08/23 07:44:07;;;;;;;6.78;2.78;;;;;;;23.65;42.66;100429.75;10188780;29;20064;-75
2022/08/23 07:49:13;;;;;;;4.10;2.10;;;;;;;23.74;42.01;100435.88;10199194;29;20054;-76
2022/08/23 07:54:20;;;;;;;3.85;2.38;;;;;;;23.95;42.24;100437.63;10234923;29;20092;-75
2022/08/23 07:59:30;;;;;;;4.87;2.43;;;;;;;24.49;41.09;100432.91;10201956;29;20048;-76
2022/08/23 08:04:52;;;;;;;3.17;2.30;;;;;;;24.60;40.97;100432.28;10186369;29;20686;-76
2022/08/23 08:09:55;;;;;;;4.15;2.50;;;;;;;24.59;40.39;100437.97;10193701;28;20441;-75
2022/08/23 08:14:59;;;;;;;4.35;2.50;;;;;;;24.87;40.56;100435.75;10204733;29;20506;-75
2022/08/23 08:20:12;;;;;;;4.70;2.60;;;;;;;25.17;40.08;100436.06;10191285;29;20048;-74
2022/08/23 08:25:37;;;;;;;5.40;3.90;;;;;;;25.01;40.06;100436.53;10228805;29;20035;-75
2022/08/23 08:30:43;;;;;;;3.55;2.50;;;;;;;25.34;39.61;100444.66;10206593;29;20051;-75
2022/08/23 08:35:51;;;;;;;3.70;2.40;;;;;;;25.65;39.22;100437.50;10216890;29;20412;-75
2022/08/23 08:41:11;;;;;;;4.72;2.30;;;;;;;25.78;39.00;100442.03;10211245;29;20059;-75
2022/08/23 08:46:22;;;;;;;2.53;2.30;;;;;;;25.70;39.05;100436.81;10196135;29;20076;-75
2022/08/23 08:51:41;;;;;;;3.00;2.60;;;;;;;26.24;38.34;100447.16;10232571;29;20124;-75
2022/08/23 08:56:49;;;;;;;5.85;2.45;;;;;;;26.57;37.86;100439.63;10235617;29;20559;-75
2022/08/23 09:02:01;;;;;;;5.88;2.50;;;;;;;27.04;36.96;100462.00;10217360;29;20692;-75
2022/08/23 09:07:21;;;;;;;6.80;2.38;;;;;;;27.71;35.86;100448.16;10202237;29;20062;-75
2022/08/23 09:12:37;;;;;;;4.20;2.33;;;;;;;28.16;35.72;100440.19;10227352;29;20489;-75
2022/08/23 09:17:44;;;;;;;6.47;2.40;;;;;;;28.11;35.56;100444.75;10233286;29;20051;-75
2022/08/23 09:22:52;;;;;;;3.15;2.40;;;;;;;28.45;35.47;100429.25;10209388;29;20047;-75
2022/08/23 09:28:04;;;;;;;5.95;2.70;;;;;;;28.16;35.22;100440.19;10223857;29;20079;-78
2022/08/23 09:33:16;;;;;;;5.55;2.00;;;;;;;28.11;35.28;100442.81;10222225;29;20051;-78
2022/08/23 09:38:20;;;;;;;3.83;2.53;;;;;;;28.73;34.00;100438.72;10197017;29;20110;-78
2022/08/23 09:43:47;;;;;;;5.57;2.40;;;;;;;28.71;34.24;100434.25;10221634;29;20300;-78
2022/08/23 09:48:54;;;;;;;4.03;2.20;;;;;;;29.41;34.02;100431.53;10220003;29;20074;-78
2022/08/23 09:54:10;;;;;;;4.60;2.45;;;;;;;29.84;32.65;100419.88;10253447;29;20086;-77
2022/08/23 09:59:22;;;;;;;3.15;2.58;;;;;;;29.11;33.42;100425.16;10226193;29;20044;-78
2022/08/23 10:04:41;;;;;;;9.30;2.67;;;;;;;28.82;33.50;100423.44;10239527;29;20135;-78
2022/08/23 10:09:47;;;;;;;3.58;2.22;;;;;;;28.22;34.16;100435.63;10224323;29;20047;-78
2022/08/23 10:14:50;;;;;;;5.65;2.25;;;;;;;27.98;34.74;100419.06;10252911;29;20443;-78
2022/08/23 10:20:12;;;;;;;5.95;2.05;;;;;;;27.84;34.94;100417.56;10254733;29;20056;-79
2022/08/23 10:25:22;;;;;;;;;;;;;;;28.27;34.51;100416.41;10239109;29;20048;-78
2022/08/23 10:30:36;;;;;;;4.03;1.90;;;;;;;29.02;33.99;100407.28;10238359;29;19933;-79
2022/08/23 10:35:46;;;;;;;4.05;2.35;;;;;;;29.14;33.10;100408.09;10231181;28;20162;-79
2022/08/23 10:41:01;;;;;;;3.90;2.00;;;;;;;29.83;32.73;100415.41;10260475;29;20054;-77
2022/08/23 10:46:07;;;;;;;3.40;2.05;;;;;;;30.36;31.00;100405.75;10204547;29;20052;-78
2022/08/23 10:51:17;;;;;;;3.65;2.00;;;;;;;29.98;30.97;100406.53;10253887;29;20047;-77
2022/08/23 10:56:35;;;;;;;3.65;2.20;;;;;;;30.09;31.28;100410.25;10203438;29;20043;-77
2022/08/23 11:01:53;;;;;;;3.67;1.90;;;;;;;31.42;30.22;100401.75;10228695;29;20039;-77
2022/08/23 11:06:59;;;;;;;2.65;1.98;;;;;;;33.46;27.91;100399.34;10217116;29;20044;-77
2022/08/23 11:12:20;;;;;;;3.40;1.98;;;;;;;33.01;27.56;100400.03;10213110;29;20046;-77
2022/08/23 11:17:28;;;;;;;5.35;2.40;;;;;;;32.84;28.19;100387.19;10198247;29;20047;-78
2022/08/23 11:22:33;;;;;;;6.03;2.20;;;;;;;33.64;27.69;100395.19;10228691;29;20118;-76
2022/08/23 11:27:40;;;;;;;2.30;2.10;;;;;;;34.60;25.78;100393.38;10230970;29;20052;-76
2022/08/23 11:32:49;;;;;;;5.38;2.00;;;;;;;35.22;25.69;100396.69;10219241;29;20552;-78
2022/08/23 11:37:58;;;;;;;3.75;1.85;;;;;;;35.48;25.38;100394.56;10235223;29;20054;-78
2022/08/23 11:43:20;;;;;;;6.22;2.50;;;;;;;34.96;25.11;100382.03;10228784;29;20043;-77
2022/08/23 11:48:37;;;;;;;3.22;2.20;;;;;;;35.28;25.59;100383.53;10228498;29;20044;-78
2022/08/23 11:54:34;;;;;;;2.83;2.15;;;;;;;34.76;25.84;100379.38;10245784;29;20070;-76
2022/08/23 12:00:16;;;;;;;4.65;2.28;;;;;;;34.50;26.44;100359.91;10180472;29;20051;-78
2022/08/23 12:06:04;;;;;;;4.05;2.05;;;;;;;34.72;25.02;100373.50;10246300;29;20047;-78
2022/08/23 12:11:10;;;;;;;4.38;2.10;;;;;;;35.68;24.55;100362.88;10216474;29;20055;-78
2022/08/23 12:16:37;;;;;;;5.88;2.20;;;;;;;34.73;25.79;100357.63;10241370;29;20118;-79
2022/08/23 12:21:48;;;;;;;2.45;2.10;;;;;;;33.48;26.61;100362.84;10241869;29;20043;-78
2022/08/23 12:27:02;;;;;;;3.55;2.35;;;;;;;34.34;25.18;100339.66;10245947;29;20048;-79
2022/08/23 12:32:19;;;;;;;5.55;2.40;;;;;;;34.90;25.10;100351.66;10245302;29;20053;-78
2022/08/23 12:37:32;;;;;;;5.85;2.20;;;;;;;35.39;24.76;100359.16;10241523;28;20044;-77
2022/08/23 12:42:37;;;;;;;4.35;2.03;;;;;;;36.78;23.31;100346.25;10259006;29;20071;-78
2022/08/23 12:47:44;;;;;;;2.83;1.90;;;;;;;35.43;24.63;100344.31;10242609;29;20085;-78
2022/08/23 12:52:57;;;;;;;4.10;2.10;;;;;;;34.85;24.53;100344.16;10248575;28;20112;-80
2022/08/23 12:58:00;;;;;;;4.43;2.10;;;;;;;34.60;24.70;100345.13;10250117;29;20075;-77
2022/08/23 13:03:11;;;;;;;2.70;2.50;;;;;;;33.69;25.20;100353.41;10270950;29;20055;-77
2022/08/23 13:08:17;;;;;;;10.43;2.78;;;;;;;33.15;26.00;100351.13;10263309;28;20052;-78
2022/08/23 13:13:27;;;;;;;3.95;2.00;;;;;;;34.88;24.82;100346.38;10240969;29;20082;-78
2022/08/23 13:18:41;;;;;;;3.25;2.58;;;;;;;35.29;24.62;100335.78;10236284;29;20035;-79
2022/08/23 13:23:44;;;;;;;4.60;2.20;;;;;;;35.31;23.74;100338.28;10258198;29;20460;-79
2022/08/23 13:29:04;;;;;;;2.33;2.13;;;;;;;34.04;26.08;100334.97;10236796;29;20040;-79
2022/08/23 13:34:09;;;;;;;4.72;2.50;;;;;;;33.71;25.92;100328.91;10237325;29;20075;-79
2022/08/23 13:39:13;;;;;;;4.97;2.30;;;;;;;33.45;25.63;100321.66;10258474;29;20086;-79
2022/08/23 13:44:19;;;;;;;3.72;2.38;;;;;;;32.19;26.91;100333.78;10256221;29;20079;-78
2022/08/23 13:49:28;;;;;;;3.90;2.40;;;;;;;32.08;26.71;100323.69;10255727;29;20409;-78
2022/08/23 13:54:32;;;;;;;5.40;1.80;;;;;;;34.32;25.45;100319.56;10163985;28;20067;-78
2022/08/23 13:59:38;;;;;;;4.43;2.33;;;;;;;34.89;23.74;100316.50;10257532;28;20059;-79
2022/08/23 14:04:43;;;;;;;7.70;2.28;;;;;;;35.16;24.12;100321.66;10240861;29;20064;-78
2022/08/23 14:09:46;;;;;;;7.07;2.45;;;;;;;36.05;23.16;100322.25;10234035;28;20047;-78
2022/08/23 14:14:54;;;;;;;7.82;2.50;;;;;;;34.76;23.70;100318.00;10254022;29;20047;-78
2022/08/23 14:19:58;;;;;;;3.63;2.20;;;;;;;33.89;24.70;100319.09;10254896;29;20047;-79
2022/08/23 14:25:20;;;;;;;2.63;2.25;;;;;;;34.46;25.17;100318.97;10233774;29;20442;-79
2022/08/23 14:30:28;;;;;;;5.22;2.20;;;;;;;35.01;23.72;100319.78;10255680;29;20064;-78
2022/08/23 14:35:32;;;;;;;5.20;2.45;;;;;;;35.36;23.96;100309.50;10238919;29;20067;-79
2022/08/23 14:40:36;;;;;;;5.43;2.50;;;;;;;36.05;22.78;100305.50;10246078;28;20378;-77
2022/08/23 14:45:39;;;;;;;4.45;2.40;;;;;;;35.92;22.34;100293.06;10247080;29;20043;-78
2022/08/23 14:50:44;;;;;;;6.00;2.17;;;;;;;35.53;23.07;100295.97;10241073;28;20462;-79
2022/08/23 14:55:48;;;;;;;3.90;2.38;;;;;;;35.76;23.23;100301.88;10250629;29;20039;-78
2022/08/23 15:01:12;;;;;;;2.78;2.30;;;;;;;36.20;22.50;100309.22;10243605;29;20051;-79
2022/08/23 15:06:19;;;;;;;6.28;2.30;;;;;;;36.02;23.00;100300.50;10234066;29;20049;-79
2022/08/23 15:11:22;;;;;;;4.50;2.38;;;;;;;34.69;24.05;100315.50;10244108;29;20051;-78
2022/08/23 15:16:45;;;;;;;4.82;2.05;;;;;;;34.43;24.52;100301.69;10237085;29;20048;-79
2022/08/23 15:21:50;;;;;;;3.55;2.00;;;;;;;34.28;24.08;100303.69;10247534;28;20043;-78
2022/08/23 15:26:58;;;;;;;3.05;1.98;;;;;;;33.23;25.27;100305.22;10232242;29;20450;-78
2022/08/23 15:32:01;;;;;;;4.60;2.38;;;;;;;33.03;25.29;100314.38;10246728;28;20044;-78
2022/08/23 15:37:05;;;;;;;6.18;2.25;;;;;;;33.72;24.90;100305.50;10247654;29;20047;-77
2022/08/23 15:42:08;;;;;;;4.68;2.35;;;;;;;33.63;24.61;100303.59;10235709;29;20051;-77
2022/08/23 15:47:18;;;;;;;5.00;2.20;;;;;;;32.90;25.93;100304.59;10230541;29;20490;-79
2022/08/23 15:52:22;;;;;;;3.33;2.08;;;;;;;32.54;25.96;100304.50;10236310;29;20043;-78
2022/08/23 15:57:27;;;;;;;3.25;2.42;;;;;;;31.45;27.36;100298.53;10241309;29;20079;-78
2022/08/23 16:02:31;;;;;;;4.85;2.30;;;;;;;31.46;27.47;100303.00;10234242;29;20087;-78
2022/08/23 16:07:56;;;;;;;2.60;2.22;;;;;;;31.53;27.17;100300.00;10244287;28;20044;-77
2022/08/23 16:13:02;;;;;;;3.03;2.35;;;;;;;32.39;26.85;100298.84;10235307;29;20055;-78
2022/08/23 16:18:05;;;;;;;4.75;2.40;;;;;;;32.17;26.52;100296.28;10244889;29;20382;-78
2022/08/23 16:23:10;;;;;;;5.07;2.30;;;;;;;31.55;27.20;100297.78;10247669;29;20099;-78
2022/08/23 16:28:13;;;;;;;4.35;2.42;;;;;;;31.48;27.59;100291.63;10238980;29;20047;-80
2022/08/23 16:33:15;;;;;;;5.88;2.40;;;;;;;31.59;27.41;100301.69;10233104;29;20087;-78
2022/08/23 16:38:20;;;;;;;5.22;2.38;;;;;;;31.14;27.81;100303.81;10243979;28;20378;-78
2022/08/23 16:43:22;;;;;;;4.95;2.42;;;;;;;31.20;28.03;100295.56;10238761;29;20099;-80
2022/08/23 16:48:25;;;;;;;4.35;2.30;;;;;;;31.57;27.60;100296.44;10249449;29;20039;-79
2022/08/23 16:53:30;;;;;;;5.38;2.65;;;;;;;30.90;28.35;100292.19;10248728;29;20050;-78
2022/08/23 16:58:33;;;;;;;3.25;2.13;;;;;;;30.55;29.24;100306.47;10242622;28;20039;-78
2022/08/23 17:03:36;;;;;;;3.20;2.28;;;;;;;30.33;29.05;100305.66;10232403;29;20047;-76
2022/08/23 17:08:40;;;;;;;3.85;2.30;;;;;;;30.08;31.22;100317.22;10227700;29;20138;-76
2022/08/23 17:13:44;;;;;;;2.75;2.10;;;;;;;29.78;30.92;100310.97;10209740;29;20060;-76
2022/08/23 17:18:47;;;;;;;5.72;1.95;;;;;;;29.62;32.87;100320.16;10245952;29;20051;-75
2022/08/23 17:23:57;;;;;;;2.40;1.98;;;;;;;29.43;31.17;100319.53;10239016;29;20122;-76
2022/08/23 17:29:00;;;;;;;5.50;2.60;;;;;;;29.33;32.59;100317.44;10234709;29;20091;-78
2022/08/23 17:34:03;;;;;;;4.10;2.20;;;;;;;29.35;32.92;100320.78;10225397;29;20078;-77
2022/08/23 17:39:10;;;;;;;4.15;2.15;;;;;;;29.14;31.36;100329.81;10235843;29;20139;-77
2022/08/23 17:44:14;;;;;;;4.90;2.40;;;;;;;28.93;31.72;100334.09;10229963;29;20186;-77
2022/08/23 17:49:20;;;;;;;3.47;2.40;;;;;;;28.85;32.46;100337.25;10229469;29;20047;-77
2022/08/23 17:54:24;;;;;;;3.05;2.03;;;;;;;28.67;32.09;100338.28;10236895;29;20043;-77
2022/08/23 17:59:27;;;;;;;3.03;2.42;;;;;;;28.56;32.16;100340.00;10219866;29;20127;-76
2022/08/23 18:04:30;;;;;;;7.38;2.40;;;;;;;28.43;33.32;100343.84;10224342;29;20047;-76
2022/08/23 18:09:35;;;;;;;4.78;2.30;;;;;;;28.28;32.52;100343.53;10222514;29;20039;-77
2022/08/23 18:14:50;;;;;;;4.93;2.50;;;;;;;28.15;33.50;100352.06;10202615;28;20505;-77
2022/08/23 18:19:53;;;;;;;4.55;2.50;;;;;;;27.92;32.68;100351.00;10201743;28;20058;-76
2022/08/23 18:24:57;;;;;;;6.43;3.03;;;;;;;27.58;32.94;100361.75;10183542;28;20538;-77
2022/08/23 18:30:00;;;;;;;2.97;2.30;;;;;;;27.43;33.42;100364.13;10197589;28;20047;-75
2022/08/23 18:35:05;;;;;;;7.47;2.38;;;;;;;27.21;33.49;100376.72;10190125;28;20044;-75
2022/08/23 18:40:10;;;;;;;2.97;2.33;;;;;;;27.03;33.49;100372.97;10199830;28;20044;-78
2022/08/23 18:45:13;;;;;;;2.28;1.80;;;;;;;26.90;33.83;100389.66;10186483;28;20043;-77
2022/08/23 18:50:18;;;;;;;3.28;2.22;;;;;;;26.65;33.67;100387.00;10204118;28;20055;-77
2022/08/23 18:55:22;;;;;;;3.25;1.90;;;;;;;26.53;33.55;100389.69;10184201;28;20454;-77
2022/08/23 19:00:25;;;;;;;6.40;2.00;;;;;;;26.48;33.51;100392.28;10187134;28;20792;-77
2022/08/23 19:05:28;;;;;;;2.22;1.67;;;;;;;26.35;33.56;100400.69;10203056;28;20047;-77
2022/08/23 19:10:46;;;;;;;6.70;1.92;;;;;;;26.23;33.75;100401.44;10185167;28;20052;-78
2022/08/23 19:15:51;;;;;;;1.73;1.58;;;;;;;26.17;33.78;100405.09;10202514;28;21335;-79
2022/08/23 19:20:54;;;;;;;6.30;1.80;;;;;;;26.10;33.73;100418.06;10208235;28;20446;-79
2022/08/23 19:25:59;;;;;;;3.65;1.50;;;;;;;25.91;34.02;100428.19;10200949;28;20062;-79
2022/08/23 19:31:02;;;;;;;4.10;1.73;;;;;;;25.90;34.15;100428.41;10229297;28;20051;-77
2022/08/23 19:36:05;;;;;;;4.00;1.80;;;;;;;25.83;34.34;100426.53;10197617;28;20090;-78
2022/08/23 19:41:09;;;;;;;5.65;1.92;;;;;;;25.82;34.48;100433.13;10193899;28;20478;-77
2022/08/23 19:46:14;;;;;;;2.17;1.70;;;;;;;25.68;34.53;100442.56;10187285;28;20549;-77
2022/08/23 19:51:19;;;;;;;3.45;1.58;;;;;;;25.74;34.35;100443.56;10181726;28;20190;-77
2022/08/23 19:56:23;;;;;;;2.55;1.75;;;;;;;25.67;34.80;100449.13;10188676;28;20114;-76
2022/08/23 20:01:29;;;;;;;5.38;1.80;;;;;;;25.63;34.65;100448.72;10183384;28;20417;-76
2022/08/23 20:06:33;;;;;;;4.38;1.80;;;;;;;25.50;34.95;100458.94;10188288;28;20131;-77
2022/08/23 20:11:38;;;;;;;4.20;1.60;;;;;;;25.43;35.17;100464.47;10200262;28;20170;-80
2022/08/23 20:16:41;;;;;;;5.38;2.28;;;;;;;25.19;35.14;100474.31;10196780;28;20103;-77
2022/08/23 20:21:44;;;;;;;5.38;2.00;;;;;;;24.97;35.28;100471.84;10205962;28;20137;-78
2022/08/23 20:26:49;;;;;;;4.90;1.70;;;;;;;24.93;35.33;100478.84;10198286;28;20191;-78
2022/08/23 20:31:55;;;;;;;2.30;2.10;;;;;;;24.73;35.68;100478.91;10195940;28;20501;-78
2022/08/23 20:36:57;;;;;;;4.97;2.00;;;;;;;24.54;35.86;100479.78;10218310;28;20056;-77
2022/08/23 20:42:02;;;;;;;8.05;2.10;;;;;;;24.53;36.13;100487.19;10242523;28;20048;-76
2022/08/23 20:47:10;;;;;;;5.32;1.60;;;;;;;24.40;36.04;100487.22;10265739;29;20118;-79
2022/08/23 20:52:13;;;;;;;2.40;1.40;;;;;;;24.36;36.47;100487.84;10240581;29;20083;-80
2022/08/23 20:57:17;;;;;;;3.33;1.98;;;;;;;24.26;36.71;100489.09;10227792;29;20055;-79
2022/08/23 21:02:20;;;;;;;4.82;2.00;;;;;;;24.04;37.01;100496.69;10227766;29;20446;-79
2022/08/23 21:07:23;;;;;;;3.72;1.80;;;;;;;23.87;37.21;100498.16;10244206;29;20122;-79
2022/08/23 21:12:31;;;;;;;4.05;1.50;;;;;;;23.77;37.65;100503.22;10238279;29;20350;-78
2022/08/23 21:17:34;;;;;;;7.03;2.30;;;;;;;23.63;37.97;100507.78;10239244;28;20059;-78
2022/08/23 21:22:37;;;;;;;2.35;1.75;;;;;;;23.49;38.03;100517.03;10254822;28;20082;-78
2022/08/23 21:27:41;;;;;;;2.58;1.35;;;;;;;23.46;38.02;100517.47;10224585;29;20457;-79
2022/08/23 21:32:44;;;;;;;2.38;2.05;;;;;;;23.40;38.18;100519.13;10225274;29;20079;-79
2022/08/23 21:37:47;;;;;;;7.28;2.13;;;;;;;23.30;38.37;100516.75;10246002;29;20063;-78
2022/08/23 21:42:51;;;;;;;4.15;1.90;;;;;;;23.23;38.30;100520.53;10246896;29;20531;-79
2022/08/23 21:47:54;;;;;;;4.05;1.90;;;;;;;23.17;38.70;100512.06;10243880;29;20079;-79
2022/08/23 21:52:57;;;;;;;3.78;2.17;;;;;;;23.09;38.86;100511.38;10229691;29;20132;-77
2022/08/23 21:58:01;;;;;;;3.05;1.90;;;;;;;23.00;38.92;100506.06;10243553;29;20065;-79
2022/08/23 22:03:05;;;;;;;5.70;1.73;;;;;;;22.97;39.27;100502.88;10231559;29;20130;-79
2022/08/23 22:08:09;;;;;;;4.32;1.88;;;;;;;22.96;39.77;100514.91;10235684;29;20049;-79
2022/08/23 22:13:17;;;;;;;2.83;1.90;;;;;;;22.88;39.50;100515.91;10237762;29;20053;-77
2022/08/23 22:18:20;;;;;;;4.60;1.92;;;;;;;22.81;39.79;100506.81;10230205;29;20478;-77
2022/08/23 22:23:22;;;;;;;3.10;1.98;;;;;;;22.78;40.06;100515.44;10243002;29;20131;-77
2022/08/23 22:28:27;;;;;;;3.63;2.35;;;;;;;22.69;40.15;100514.75;10225318;29;20043;-79
2022/08/23 22:33:34;;;;;;;5.20;1.85;;;;;;;22.59;40.27;100508.78;10223754;29;20051;-77
2022/08/23 22:38:38;;;;;;;1.67;1.50;;;;;;;22.54;40.57;100519.47;10227123;28;20050;-77
2022/08/23 22:43:42;;;;;;;3.92;2.03;;;;;;;22.47;41.04;100508.50;10235003;29;20420;-78
2022/08/23 22:48:47;;;;;;;2.67;1.63;;;;;;;22.36;41.15;100522.69;10249338;29;20055;-78
2022/08/23 22:53:52;;;;;;;2.58;1.70;;;;;;;22.24;41.35;100514.19;10227269;28;20533;-78
2022/08/23 22:58:57;;;;;;;1.60;1.50;;;;;;;22.23;41.73;100517.13;10245187;28;20474;-76
2022/08/23 23:04:02;;;;;;;6.38;1.75;;;;;;;22.22;41.95;100524.47;10224360;29;20458;-78
2022/08/23 23:09:06;;;;;;;3.70;2.05;;;;;;;22.20;42.13;100526.56;10231493;29;20040;-77
2022/08/23 23:14:15;;;;;;;3.42;1.98;;;;;;;22.09;42.05;100527.09;10234335;29;20062;-77
2022/08/23 23:24:39;;;;;;;5.25;1.88;;;;;;;21.96;42.61;100526.97;10226118;29;20047;-78
2022/08/23 23:29:44;;;;;;;8.95;1.67;;;;;;;21.89;43.08;100526.91;10246376;29;20458;-78
2022/08/23 23:34:47;;;;;;;2.88;1.63;;;;;;;21.85;43.54;100520.13;10221542;29;20054;-78
2022/08/23 23:39:49;;;;;;;1.98;1.75;;;;;;;21.80;43.92;100530.81;10226399;29;20047;-78
2022/08/23 23:44:54;;;;;;;3.60;1.90;;;;;;;21.67;44.23;100537.81;10238077;28;20051;-79